Time;durP1;ratioP1;P1;durP2;ratioP2;P2;SDS_P1;SDS_P2;PMS_P1;PMS_P2;Temp;Humidity;BMP_temperature;BMP_pressure;BME280_temperature;BME280_humidity;BME280_pressure;Samples;Min_cycle;Max_cycle;Signal;HPM_P1;HPM_P2
2021/01/22 00:02:15;;;;;;;4.20;2.17;;;;;;;;;;6260078;23;20078;-86
2021/01/22 00:04:44;;;;;;;3.45;2.20;;;;;;;;;;6254256;23;20028;-86
2021/01/22 00:07:14;;;;;;;4.13;1.92;;;;;;;;;;6253529;22;20414;-86
2021/01/22 00:09:41;;;;;;;4.32;2.20;;;;;;;;;;6252529;23;20034;-86
2021/01/22 00:12:08;;;;;;;3.80;2.15;;;;;;;;;;6252748;23;20086;-86
2021/01/22 00:14:34;;;;;;;5.78;2.53;;;;;;;;;;6251334;23;20414;-86
2021/01/22 00:17:04;;;;;;;6.57;2.72;;;;;;;;;;6253363;23;20040;-86
2021/01/22 00:19:30;;;;;;;7.75;2.50;;;;;;;;;;6253288;23;20036;-86
2021/01/22 00:21:59;;;;;;;7.40;1.90;;;;;;;;;;6253288;23;20024;-87
2021/01/22 00:24:26;;;;;;;4.30;2.40;;;;;;;;;;6252873;23;20220;-88
2021/01/22 00:26:55;;;;;;;8.13;2.03;;;;;;;;;;6252700;23;20084;-88
2021/01/22 00:29:27;;;;;;;4.90;2.08;;;;;;;;;;6252310;23;20024;-90
2021/01/22 00:32:05;;;;;;;4.85;2.30;;;;;;;;;;6251821;23;20035;-89
2021/01/22 00:34:58;;;;;;;7.45;1.95;;;;;;;;;;6252343;22;20028;-89
2021/01/22 00:41:28;;;;;;;5.32;2.28;;;;;;;;;;6164868;23;20016;-91
2021/01/22 00:44:06;;;;;;;;;;;;;;;;;;6216588;23;20069;-92
2021/01/22 00:46:34;;;;;;;3.20;1.30;;;;;;;;;;6261866;23;19915;-91
2021/01/22 00:49:13;;;;;;;1.67;1.27;;;;;;;;;;6259981;22;20028;-91
2021/01/22 00:51:56;;;;;;;1.88;1.00;;;;;;;;;;6257993;22;20020;-91
2021/01/22 00:54:47;;;;;;;1.73;1.10;;;;;;;;;;6258208;23;20024;-91
2021/01/22 00:57:44;;;;;;;2.15;1.42;;;;;;;;;;6256953;23;20238;-90
2021/01/22 01:00:30;;;;;;;1.60;1.15;;;;;;;;;;6235744;23;20016;-89
2021/01/22 01:03:13;;;;;;;1.92;0.82;;;;;;;;;;6255691;23;20027;-89
2021/01/22 01:22:58;;;;;;;1.55;0.90;;;;;;;;;;6171675;23;20004;-90
2021/01/22 01:25:37;;;;;;;2.33;1.00;;;;;;;;;;6177314;23;20044;-92
2021/01/22 01:28:11;;;;;;;2.25;0.80;;;;;;;;;;6151704;23;20513;-91
2021/01/22 01:31:03;;;;;;;0.93;0.50;;;;;;;;;;6169133;23;20032;-92
2021/01/22 01:43:34;;;;;;;2.42;0.45;;;;;;;;;;6118824;23;20033;-91
2021/01/22 01:46:15;;;;;;;1.67;0.60;;;;;;;;;;6143709;23;20061;-92
2021/01/22 02:09:16;;;;;;;1.00;0.57;;;;;;;;;;6063427;23;20034;-92
2021/01/22 02:15:17;;;;;;;1.17;0.45;;;;;;;;;;6088273;23;20037;-92
2021/01/22 02:17:51;;;;;;;1.83;0.68;;;;;;;;;;6088682;23;20038;-92
2021/01/22 02:20:23;;;;;;;1.50;0.60;;;;;;;;;;6088966;23;20030;-91
2021/01/22 02:22:55;;;;;;;1.83;0.85;;;;;;;;;;6090333;23;20074;-92
2021/01/22 02:30:13;;;;;;;;;;;;;;;;;;;;;
2021/01/22 02:33:29;;;;;;;2.83;0.70;;;;;;;;;;5896630;24;20053;-91
2021/01/22 02:36:11;;;;;;;2.63;0.65;;;;;;;;;;5928637;24;20135;-91
2021/01/22 02:38:42;;;;;;;1.73;0.55;;;;;;;;;;5973209;23;20031;-91
2021/01/22 02:44:25;;;;;;;2.40;0.68;;;;;;;;;;6005654;23;20019;-90
2021/01/22 02:46:56;;;;;;;3.45;0.93;;;;;;;;;;6085197;23;20012;-92
2021/01/22 02:49:24;;;;;;;1.83;0.65;;;;;;;;;;6186681;23;20036;-90
2021/01/22 02:52:23;;;;;;;4.10;0.60;;;;;;;;;;6186577;23;20046;-91
2021/01/22 02:55:12;;;;;;;1.83;0.70;;;;;;;;;;6215521;22;20318;-88
2021/01/22 02:57:46;;;;;;;2.28;1.08;;;;;;;;;;6257101;23;20035;-86
2021/01/22 03:00:15;;;;;;;2.67;0.82;;;;;;;;;;6231674;23;20024;-85
2021/01/22 03:02:54;;;;;;;2.10;0.70;;;;;;;;;;6227590;23;20024;-84
2021/01/22 03:05:25;;;;;;;3.63;0.77;;;;;;;;;;6254024;23;20078;-85
2021/01/22 03:08:02;;;;;;;1.48;0.50;;;;;;;;;;6253284;23;20180;-85
2021/01/22 03:10:28;;;;;;;2.17;0.90;;;;;;;;;;6254149;23;20058;-86
2021/01/22 03:12:56;;;;;;;3.50;0.60;;;;;;;;;;6227766;23;20074;-85
2021/01/22 03:15:24;;;;;;;3.00;0.38;;;;;;;;;;6226869;23;20303;-85
2021/01/22 03:18:08;;;;;;;0.40;0.38;;;;;;;;;;6227299;23;20034;-86
2021/01/22 03:20:34;;;;;;;0.70;0.50;;;;;;;;;;6226994;23;20141;-85
2021/01/22 03:23:01;;;;;;;0.73;0.40;;;;;;;;;;6227129;23;20082;-86
2021/01/22 03:25:27;;;;;;;2.28;0.47;;;;;;;;;;6226414;23;20035;-86
2021/01/22 03:27:53;;;;;;;1.00;0.68;;;;;;;;;;6252929;23;20016;-86
2021/01/22 03:30:20;;;;;;;0.93;0.75;;;;;;;;;;6226164;23;20062;-86
2021/01/22 03:32:46;;;;;;;5.05;0.60;;;;;;;;;;6226776;23;20398;-86
2021/01/22 03:35:13;;;;;;;0.57;0.52;;;;;;;;;;6252770;23;20024;-86
2021/01/22 03:37:39;;;;;;;0.95;0.30;;;;;;;;;;6254187;23;20047;-87
2021/01/22 03:40:05;;;;;;;0.50;0.30;;;;;;;;;;6254210;23;20027;-86
2021/01/22 03:42:35;;;;;;;1.80;0.20;;;;;;;;;;6227377;23;20051;-87
2021/01/22 03:45:01;;;;;;;0.30;0.30;;;;;;;;;;6228768;23;20032;-86
2021/01/22 03:47:28;;;;;;;0.30;0.30;;;;;;;;;;6257563;23;20060;-88
2021/01/22 03:49:56;;;;;;;1.58;0.30;;;;;;;;;;6241462;23;20016;-88
2021/01/22 03:52:22;;;;;;;1.05;0.28;;;;;;;;;;6245513;22;20043;-89
2021/01/22 03:54:48;;;;;;;0.50;0.20;;;;;;;;;;6271155;22;20020;-88
2021/01/22 03:57:29;;;;;;;2.20;0.20;;;;;;;;;;6249066;22;20012;-90
2021/01/22 04:00:06;;;;;;;0.30;0.30;;;;;;;;;;6271683;22;20073;-91
2021/01/22 04:50:58;;;;;;;2.65;1.70;;;;;;;;;;6188139;23;20031;-91
2021/01/22 04:53:42;;;;;;;2.08;1.60;;;;;;;;;;6205548;23;20214;-89
2021/01/22 04:56:35;;;;;;;16.08;2.13;;;;;;;;;;6204812;23;20017;-90
2021/01/22 04:59:29;;;;;;;5.15;1.83;;;;;;;;;;6205034;23;20017;-90
2021/01/22 05:02:14;;;;;;;9.82;2.13;;;;;;;;;;6202298;23;20016;-89
2021/01/22 05:05:08;;;;;;;32.97;5.25;;;;;;;;;;6230750;23;20021;-88
2021/01/22 05:07:49;;;;;;;2.10;1.77;;;;;;;;;;6228012;23;20020;-90
2021/01/22 05:10:33;;;;;;;2.25;1.83;;;;;;;;;;6224958;23;20076;-90
2021/01/22 05:13:14;;;;;;;2.10;1.90;;;;;;;;;;6225955;23;20021;-90
2021/01/22 05:16:11;;;;;;;2.22;2.03;;;;;;;;;;6204022;23;20072;-89
2021/01/22 05:18:55;;;;;;;2.50;2.20;;;;;;;;;;6204776;23;20027;-90
2021/01/22 05:21:42;;;;;;;2.33;2.13;;;;;;;;;;6205971;23;20020;-90
2021/01/22 05:24:37;;;;;;;3.42;2.40;;;;;;;;;;6226170;23;20161;-90
2021/01/22 05:27:39;;;;;;;275.23;21.38;;;;;;;;;;6225728;23;20020;-90
2021/01/22 05:30:24;;;;;;;5.95;3.80;;;;;;;;;;6206994;22;20032;-90
2021/01/22 05:33:21;;;;;;;6.10;4.57;;;;;;;;;;6213557;22;20029;-89
2021/01/22 05:36:24;;;;;;;5.57;4.90;;;;;;;;;;6215504;22;20063;-89
2021/01/22 05:39:06;;;;;;;8.88;5.57;;;;;;;;;;6214944;22;20008;-90
2021/01/22 05:41:53;;;;;;;7.95;4.97;;;;;;;;;;6207798;23;20036;-89
2021/01/22 05:44:34;;;;;;;4.85;4.05;;;;;;;;;;6203502;23;20052;-89
2021/01/22 05:47:18;;;;;;;8.52;4.10;;;;;;;;;;6238858;23;20035;-90
2021/01/22 05:50:19;;;;;;;4.95;3.65;;;;;;;;;;6232788;23;20299;-89
2021/01/22 05:53:14;;;;;;;3.65;2.72;;;;;;;;;;6233266;23;20020;-89
2021/01/22 05:56:13;;;;;;;3.92;2.85;;;;;;;;;;6236691;23;20031;-89
2021/01/22 05:58:51;;;;;;;7.43;3.75;;;;;;;;;;6234265;23;20054;-90
2021/01/22 06:01:35;;;;;;;4.22;2.60;;;;;;;;;;6235718;23;20027;-89
2021/01/22 06:04:09;;;;;;;6.20;2.78;;;;;;;;;;6236798;23;20204;-88
2021/01/22 06:06:52;;;;;;;4.30;3.33;;;;;;;;;;6243674;22;20028;-90
2021/01/22 06:09:34;;;;;;;5.90;3.58;;;;;;;;;;6264608;22;20014;-91
2021/01/22 06:12:17;;;;;;;9.32;4.53;;;;;;;;;;6237125;22;20020;-89
2021/01/22 06:15:02;;;;;;;5.45;4.00;;;;;;;;;;6247457;23;20055;-89
2021/01/22 06:17:45;;;;;;;;;;;;;;;;;;6235104;23;20286;-89
2021/01/22 06:20:34;;;;;;;8.65;4.88;;;;;;;;;;6241139;22;19903;-89
2021/01/22 06:23:15;;;;;;;9.55;5.93;;;;;;;;;;6238288;22;20020;-89
2021/01/22 06:25:58;;;;;;;10.05;6.10;;;;;;;;;;6238990;23;20071;-89
2021/01/22 06:28:39;;;;;;;8.65;6.88;;;;;;;;;;6258180;23;20020;-88
2021/01/22 06:31:24;;;;;;;11.15;7.32;;;;;;;;;;6241001;23;20051;-88
2021/01/22 06:34:05;;;;;;;12.50;7.72;;;;;;;;;;6229747;23;20020;-88
2021/01/22 06:36:32;;;;;;;11.68;7.93;;;;;;;;;;6230440;23;20024;-88
2021/01/22 06:39:14;;;;;;;10.65;7.80;;;;;;;;;;6231081;23;20072;-87
2021/01/22 06:41:42;;;;;;;14.30;8.10;;;;;;;;;;6226431;23;20031;-87
2021/01/22 06:44:22;;;;;;;13.93;9.32;;;;;;;;;;6232111;23;20020;-87
2021/01/22 06:46:53;;;;;;;15.05;8.15;;;;;;;;;;6232268;23;20028;-88
2021/01/22 06:49:30;;;;;;;13.40;8.07;;;;;;;;;;6251930;22;20102;-88
2021/01/22 06:52:10;;;;;;;19.05;9.50;;;;;;;;;;6249295;22;20028;-88
2021/01/22 06:54:57;;;;;;;13.35;9.77;;;;;;;;;;6247124;23;20062;-88
2021/01/22 06:57:39;;;;;;;13.45;9.15;;;;;;;;;;6248003;23;20094;-88
2021/01/22 07:00:37;;;;;;;13.65;10.10;;;;;;;;;;6250974;23;20031;-87
2021/01/22 07:03:07;;;;;;;14.65;9.82;;;;;;;;;;6252016;22;20031;-88
2021/01/22 07:05:51;;;;;;;19.08;9.95;;;;;;;;;;6250018;22;20020;-89
2021/01/22 07:08:56;;;;;;;14.98;9.35;;;;;;;;;;6251787;22;20089;-87
2021/01/22 07:11:27;;;;;;;12.15;9.50;;;;;;;;;;6263613;22;20016;-88
2021/01/22 07:13:58;;;;;;;14.60;9.32;;;;;;;;;;6262819;22;20124;-88
2021/01/22 07:16:42;;;;;;;14.45;8.77;;;;;;;;;;6251743;23;20075;-88
2021/01/22 07:19:16;;;;;;;20.48;9.05;;;;;;;;;;6255879;22;20024;-88
2021/01/22 07:22:15;;;;;;;15.18;8.55;;;;;;;;;;6252692;22;20031;-87
2021/01/22 07:24:47;;;;;;;13.77;8.98;;;;;;;;;;6252068;23;20052;-88
2021/01/22 07:27:16;;;;;;;11.98;8.48;;;;;;;;;;6251363;23;20063;-88
2021/01/22 07:30:25;;;;;;;13.85;8.55;;;;;;;;;;6250478;22;20028;-87
2021/01/22 07:32:54;;;;;;;16.33;9.05;;;;;;;;;;6248752;23;20084;-87
2021/01/22 07:35:28;;;;;;;16.92;9.55;;;;;;;;;;6251542;23;20031;-88
2021/01/22 07:38:25;;;;;;;11.40;9.38;;;;;;;;;;6253065;22;20096;-88
2021/01/22 07:40:51;;;;;;;13.60;9.63;;;;;;;;;;6253208;22;20024;-87
2021/01/22 07:43:23;;;;;;;20.17;10.45;;;;;;;;;;6253263;23;20260;-87
2021/01/22 07:45:50;;;;;;;14.45;10.07;;;;;;;;;;6250363;23;20164;-88
2021/01/22 07:48:29;;;;;;;16.98;10.95;;;;;;;;;;6252493;22;20028;-88
2021/01/22 07:51:39;;;;;;;17.08;10.38;;;;;;;;;;6254256;23;20024;-88
2021/01/22 07:54:14;;;;;;;17.65;10.60;;;;;;;;;;6250185;22;20118;-87
2021/01/22 07:56:48;;;;;;;14.50;10.35;;;;;;;;;;6251626;22;20028;-87
2021/01/22 07:59:16;;;;;;;17.90;9.88;;;;;;;;;;6251547;22;20144;-87
2021/01/22 08:01:45;;;;;;;15.73;9.95;;;;;;;;;;6249437;23;20024;-88
2021/01/22 08:04:49;;;;;;;14.32;10.00;;;;;;;;;;6252550;22;20066;-88
2021/01/22 08:07:29;;;;;;;13.38;10.15;;;;;;;;;;6250078;23;20280;-87
2021/01/22 08:10:03;;;;;;;12.90;9.50;;;;;;;;;;6252957;23;20032;-87
2021/01/22 08:12:53;;;;;;;16.00;10.60;;;;;;;;;;6251282;22;20539;-87
2021/01/22 08:15:26;;;;;;;14.95;10.77;;;;;;;;;;6263212;22;20239;-87
2021/01/22 08:17:57;;;;;;;22.95;11.65;;;;;;;;;;6264701;22;20157;-88
2021/01/22 08:20:50;;;;;;;19.13;11.65;;;;;;;;;;6264045;22;20079;-88
2021/01/22 08:23:20;;;;;;;24.50;11.48;;;;;;;;;;6263857;22;20016;-88
2021/01/22 08:26:07;;;;;;;20.73;10.75;;;;;;;;;;6257557;22;20044;-87
2021/01/22 08:28:51;;;;;;;15.38;10.05;;;;;;;;;;6252023;22;20031;-87
2021/01/22 08:31:24;;;;;;;16.73;10.43;;;;;;;;;;6256275;23;20055;-87
2021/01/22 08:34:08;;;;;;;16.63;11.43;;;;;;;;;;6255030;22;20020;-89
2021/01/22 08:36:59;;;;;;;24.00;11.02;;;;;;;;;;6257628;22;20032;-88
2021/01/22 08:39:55;;;;;;;23.33;11.05;;;;;;;;;;6258039;23;20024;-88
2021/01/22 08:43:09;;;;;;;19.95;11.45;;;;;;;;;;6255788;23;20020;-88
2021/01/22 08:46:12;;;;;;;21.05;11.05;;;;;;;;;;6254856;23;20086;-87
2021/01/22 08:48:44;;;;;;;16.38;10.25;;;;;;;;;;6198726;23;20038;-87
2021/01/22 08:51:12;;;;;;;16.63;10.05;;;;;;;;;;6202738;23;20293;-88
2021/01/22 08:53:50;;;;;;;11.63;9.18;;;;;;;;;;6198136;23;20028;-87
2021/01/22 08:56:23;;;;;;;16.52;9.20;;;;;;;;;;6197425;23;20403;-87
2021/01/22 08:59:08;;;;;;;14.32;8.82;;;;;;;;;;6196902;23;20202;-87
2021/01/22 09:01:47;;;;;;;13.90;7.90;;;;;;;;;;6193521;23;20025;-88
2021/01/22 09:04:19;;;;;;;12.93;7.93;;;;;;;;;;6193467;23;20035;-86
2021/01/22 09:06:48;;;;;;;11.90;7.70;;;;;;;;;;6192187;23;20307;-87
2021/01/22 09:10:03;;;;;;;14.25;7.88;;;;;;;;;;6193339;23;20028;-86
2021/01/22 09:12:34;;;;;;;13.48;7.18;;;;;;;;;;6195493;23;20028;-87
2021/01/22 09:15:04;;;;;;;10.93;6.63;;;;;;;;;;6193303;23;20035;-87
2021/01/22 09:18:01;;;;;;;12.88;6.65;;;;;;;;;;6198563;23;20024;-88
2021/01/22 09:20:35;;;;;;;15.27;6.00;;;;;;;;;;6200167;23;20031;-87
2021/01/22 09:23:05;;;;;;;14.60;6.95;;;;;;;;;;6195794;23;20035;-87
2021/01/22 09:25:32;;;;;;;17.63;6.88;;;;;;;;;;6195555;23;20079;-86
2021/01/22 09:28:10;;;;;;;15.10;6.93;;;;;;;;;;6198795;23;20051;-86
2021/01/22 09:30:43;;;;;;;14.07;6.47;;;;;;;;;;6226901;23;20230;-86
2021/01/22 09:33:13;;;;;;;11.93;5.50;;;;;;;;;;6209761;22;20204;-87
2021/01/22 09:35:43;;;;;;;12.15;5.72;;;;;;;;;;6209198;23;20026;-87
2021/01/22 09:38:27;;;;;;;10.85;5.45;;;;;;;;;;6211182;23;20293;-87
2021/01/22 09:41:14;;;;;;;11.73;5.82;;;;;;;;;;6225729;23;20037;-86
2021/01/22 09:43:46;;;;;;;18.00;6.93;;;;;;;;;;6196810;23;20185;-87
2021/01/22 09:46:18;;;;;;;11.05;6.05;;;;;;;;;;6207218;22;20031;-86
2021/01/22 09:48:58;;;;;;;13.05;5.75;;;;;;;;;;6265084;22;20023;-85
2021/01/22 09:51:30;;;;;;;9.88;5.30;;;;;;;;;;6252266;22;20175;-85
2021/01/22 09:54:11;;;;;;;15.05;5.15;;;;;;;;;;6255530;22;20015;-86
2021/01/22 09:56:49;;;;;;;8.00;4.82;;;;;;;;;;6256258;22;20035;-86
2021/01/22 09:59:15;;;;;;;12.27;5.28;;;;;;;;;;6252521;22;20084;-86
2021/01/22 10:01:46;;;;;;;11.68;5.90;;;;;;;;;;6254145;23;20091;-86
2021/01/22 10:04:28;;;;;;;11.73;6.13;;;;;;;;;;6264546;22;20012;-87
2021/01/22 10:06:55;;;;;;;14.05;6.43;;;;;;;;;;6262778;22;20028;-86
2021/01/22 10:09:21;;;;;;;16.80;6.07;;;;;;;;;;6252854;23;20028;-86
2021/01/22 10:12:09;;;;;;;12.20;7.10;;;;;;;;;;6247246;23;20034;-86
2021/01/22 10:14:40;;;;;;;14.80;6.63;;;;;;;;;;6251098;22;20177;-86
2021/01/22 10:17:10;;;;;;;11.52;7.10;;;;;;;;;;6253663;22;20035;-86
2021/01/22 10:19:37;;;;;;;14.05;7.03;;;;;;;;;;6252548;23;20108;-87
2021/01/22 10:22:03;;;;;;;15.07;6.93;;;;;;;;;;6257685;23;20024;-87
2021/01/22 10:24:32;;;;;;;9.98;6.55;;;;;;;;;;6265123;22;20070;-86
2021/01/22 10:27:03;;;;;;;16.90;7.03;;;;;;;;;;6264324;22;20085;-87
2021/01/22 10:29:32;;;;;;;12.75;7.20;;;;;;;;;;6234197;22;20031;-85
2021/01/22 10:32:06;;;;;;;16.13;7.63;;;;;;;;;;6236930;23;20032;-85
2021/01/22 10:34:34;;;;;;;17.20;7.45;;;;;;;;;;6238621;22;20022;-85
2021/01/22 10:37:07;;;;;;;14.18;7.95;;;;;;;;;;6236456;23;20062;-87
2021/01/22 10:39:44;;;;;;;17.58;8.35;;;;;;;;;;6235470;23;20137;-87
2021/01/22 10:42:12;;;;;;;18.98;8.77;;;;;;;;;;6233461;23;20227;-87
2021/01/22 10:44:53;;;;;;;21.33;8.27;;;;;;;;;;6232965;23;20027;-86
2021/01/22 10:47:29;;;;;;;20.05;8.70;;;;;;;;;;6255475;23;20433;-86
2021/01/22 10:50:07;;;;;;;14.18;8.15;;;;;;;;;;6230120;23;20024;-86
2021/01/22 10:52:35;;;;;;;19.50;8.15;;;;;;;;;;6228262;23;20047;-86
2021/01/22 10:55:13;;;;;;;19.35;8.98;;;;;;;;;;6229945;23;20082;-86
2021/01/22 10:57:53;;;;;;;17.02;7.78;;;;;;;;;;6230139;23;20028;-86
2021/01/22 11:00:23;;;;;;;20.95;8.77;;;;;;;;;;6237703;23;20039;-86
2021/01/22 11:02:50;;;;;;;16.17;8.10;;;;;;;;;;6238274;22;20012;-90
2021/01/22 11:05:18;;;;;;;14.75;8.48;;;;;;;;;;6239209;22;20016;-89
2021/01/22 11:07:48;;;;;;;18.65;8.70;;;;;;;;;;6240723;22;20051;-89
2021/01/22 11:10:15;;;;;;;17.15;8.15;;;;;;;;;;6238022;23;20084;-91
2021/01/22 11:12:53;;;;;;;21.13;8.90;;;;;;;;;;6255145;23;20080;-90
2021/01/22 11:15:20;;;;;;;17.48;8.95;;;;;;;;;;6230236;23;20034;-90
2021/01/22 11:17:47;;;;;;;17.92;8.65;;;;;;;;;;6228952;23;20024;-90
2021/01/22 11:20:30;;;;;;;21.08;7.05;;;;;;;;;;6232671;23;20028;-88
2021/01/22 11:22:56;;;;;;;12.65;7.15;;;;;;;;;;6262381;23;20228;-86
2021/01/22 11:25:24;;;;;;;22.55;8.20;;;;;;;;;;6263069;23;20345;-86
2021/01/22 11:27:54;;;;;;;18.52;7.20;;;;;;;;;;6262286;22;20012;-86
2021/01/22 11:30:23;;;;;;;22.38;6.47;;;;;;;;;;6284784;22;20027;-86
2021/01/22 11:32:50;;;;;;;18.02;7.43;;;;;;;;;;6237234;23;20028;-86
2021/01/22 11:35:21;;;;;;;16.00;6.45;;;;;;;;;;6237543;23;20039;-86
2021/01/22 11:37:48;;;;;;;16.92;6.35;;;;;;;;;;6237057;23;20047;-86
2021/01/22 11:40:18;;;;;;;15.35;7.22;;;;;;;;;;6252795;23;20095;-86
2021/01/22 11:42:49;;;;;;;19.25;6.95;;;;;;;;;;6225185;23;20055;-86
2021/01/22 11:45:17;;;;;;;16.65;6.43;;;;;;;;;;6224998;23;20039;-86
2021/01/22 11:47:50;;;;;;;22.10;6.60;;;;;;;;;;6249982;23;20341;-86
2021/01/22 11:50:28;;;;;;;11.40;6.63;;;;;;;;;;6251374;23;20234;-86
2021/01/22 11:52:59;;;;;;;10.38;6.00;;;;;;;;;;6250709;23;20103;-86
2021/01/22 11:55:41;;;;;;;12.50;6.18;;;;;;;;;;6241732;23;20083;-87
2021/01/22 11:58:17;;;;;;;11.63;6.22;;;;;;;;;;6227704;23;20027;-85
2021/01/22 12:00:53;;;;;;;24.88;7.40;;;;;;;;;;6225725;23;20044;-86
2021/01/22 12:03:34;;;;;;;13.02;6.85;;;;;;;;;;6234134;23;20102;-85
2021/01/22 12:06:11;;;;;;;14.75;6.97;;;;;;;;;;6230730;23;20039;-86
2021/01/22 12:08:42;;;;;;;14.45;6.45;;;;;;;;;;6224004;23;20055;-86
2021/01/22 12:11:10;;;;;;;15.35;7.18;;;;;;;;;;6223292;23;20429;-87
2021/01/22 12:13:38;;;;;;;18.23;6.35;;;;;;;;;;6223436;23;20165;-87
2021/01/22 12:16:05;;;;;;;17.05;6.97;;;;;;;;;;6223541;23;20028;-86
2021/01/22 12:18:32;;;;;;;11.93;6.43;;;;;;;;;;6252675;23;20185;-86
2021/01/22 12:21:05;;;;;;;11.45;6.55;;;;;;;;;;6226721;23;20102;-86
2021/01/22 12:23:36;;;;;;;13.70;6.57;;;;;;;;;;6266124;22;20051;-88
2021/01/22 12:26:05;;;;;;;20.80;6.70;;;;;;;;;;6251434;23;20082;-87
2021/01/22 12:28:40;;;;;;;13.43;6.82;;;;;;;;;;6237194;23;20091;-88
2021/01/22 12:31:19;;;;;;;15.07;6.30;;;;;;;;;;6195592;23;20032;-87
2021/01/22 12:33:46;;;;;;;16.17;6.78;;;;;;;;;;6222488;23;20433;-87
2021/01/22 12:36:12;;;;;;;17.95;6.63;;;;;;;;;;6198135;23;20028;-88
2021/01/22 12:38:39;;;;;;;12.25;6.45;;;;;;;;;;6226411;23;20080;-88
2021/01/22 12:41:28;;;;;;;12.10;5.25;;;;;;;;;;6200626;23;20185;-88
2021/01/22 12:44:01;;;;;;;12.80;5.90;;;;;;;;;;6226720;23;20175;-89
2021/01/22 12:46:35;;;;;;;14.07;5.45;;;;;;;;;;6196637;23;20067;-87
2021/01/22 12:49:14;;;;;;;11.82;4.78;;;;;;;;;;6199880;23;20063;-88
2021/01/22 12:51:44;;;;;;;13.13;5.07;;;;;;;;;;6201076;23;20158;-89
2021/01/22 12:54:11;;;;;;;14.43;5.38;;;;;;;;;;6200011;23;20044;-88
2021/01/22 12:57:06;;;;;;;12.07;5.18;;;;;;;;;;6203486;22;20035;-89
2021/01/22 12:59:35;;;;;;;14.25;5.68;;;;;;;;;;6238289;22;20036;-91
2021/01/22 13:02:16;;;;;;;12.45;5.65;;;;;;;;;;6211599;22;20201;-89
2021/01/22 13:04:43;;;;;;;13.80;5.53;;;;;;;;;;6211839;22;20063;-88
2021/01/22 13:07:11;;;;;;;13.40;5.43;;;;;;;;;;6210182;22;20161;-88
2021/01/22 13:09:39;;;;;;;13.52;5.00;;;;;;;;;;6234630;23;20087;-88
2021/01/22 13:12:07;;;;;;;14.00;4.82;;;;;;;;;;6234047;23;20168;-87
2021/01/22 13:14:33;;;;;;;13.13;5.80;;;;;;;;;;6209819;23;20032;-87
2021/01/22 13:17:00;;;;;;;12.93;5.18;;;;;;;;;;6206098;23;20100;-88
2021/01/22 13:19:27;;;;;;;16.63;5.03;;;;;;;;;;6200864;23;20031;-88
2021/01/22 13:21:54;;;;;;;17.52;4.93;;;;;;;;;;6199422;23;20033;-88
2021/01/22 13:24:21;;;;;;;15.27;4.88;;;;;;;;;;6225855;23;20076;-88
2021/01/22 13:26:47;;;;;;;12.60;4.13;;;;;;;;;;6204463;23;20040;-88
2021/01/22 13:29:14;;;;;;;11.23;4.45;;;;;;;;;;6255096;23;20074;-87
2021/01/22 13:31:45;;;;;;;10.57;4.10;;;;;;;;;;6236397;23;20089;-88
2021/01/22 13:34:13;;;;;;;11.23;4.00;;;;;;;;;;6232172;23;20024;-88
2021/01/22 13:36:40;;;;;;;8.50;3.78;;;;;;;;;;6252841;23;20076;-87
2021/01/22 13:39:06;;;;;;;15.00;4.60;;;;;;;;;;6248886;23;20024;-87
2021/01/22 13:41:34;;;;;;;10.13;4.15;;;;;;;;;;6224719;23;20020;-88
2021/01/22 13:44:01;;;;;;;12.38;4.55;;;;;;;;;;6226684;23;20034;-89
2021/01/22 13:46:29;;;;;;;11.88;3.83;;;;;;;;;;6250958;22;20115;-89
2021/01/22 13:49:15;;;;;;;11.00;3.72;;;;;;;;;;6225689;23;20028;-88
2021/01/22 13:51:44;;;;;;;9.05;3.92;;;;;;;;;;6222895;23;20039;-88
2021/01/22 13:54:11;;;;;;;9.55;4.05;;;;;;;;;;6221972;23;20043;-88
2021/01/22 13:56:48;;;;;;;8.75;3.67;;;;;;;;;;6224110;23;20095;-89
2021/01/22 13:59:16;;;;;;;10.27;4.30;;;;;;;;;;6224321;23;20193;-88
2021/01/22 14:01:43;;;;;;;13.60;3.88;;;;;;;;;;6221360;23;20044;-88
2021/01/22 14:04:11;;;;;;;12.05;3.92;;;;;;;;;;6250309;23;20487;-89
2021/01/22 14:06:38;;;;;;;14.48;4.13;;;;;;;;;;6224922;23;20028;-87
2021/01/22 14:09:06;;;;;;;16.52;3.70;;;;;;;;;;6199158;23;20071;-88
2021/01/22 14:11:42;;;;;;;9.48;3.65;;;;;;;;;;6226362;23;20086;-88
2021/01/22 14:14:11;;;;;;;8.88;3.55;;;;;;;;;;6252288;22;20329;-88
2021/01/22 14:16:53;;;;;;;11.43;3.58;;;;;;;;;;6225106;23;20332;-88
2021/01/22 14:19:22;;;;;;;17.33;4.00;;;;;;;;;;6255163;23;20020;-89
2021/01/22 14:21:50;;;;;;;13.70;3.72;;;;;;;;;;6228700;23;20176;-85
2021/01/22 14:24:26;;;;;;;11.05;3.47;;;;;;;;;;6226524;23;20024;-85
2021/01/22 14:26:55;;;;;;;21.05;6.15;;;;;;;;;;6223645;23;20028;-85
2021/01/22 14:29:22;;;;;;;15.15;4.63;;;;;;;;;;6223055;23;20143;-85
2021/01/22 14:31:52;;;;;;;10.75;3.50;;;;;;;;;;6221768;23;20322;-86
2021/01/22 14:34:21;;;;;;;9.07;3.67;;;;;;;;;;6226107;23;20231;-84
2021/01/22 14:36:48;;;;;;;8.30;3.10;;;;;;;;;;6228576;23;20407;-86
2021/01/22 14:39:21;;;;;;;12.57;3.53;;;;;;;;;;6256535;23;20446;-85
2021/01/22 14:41:52;;;;;;;8.30;3.20;;;;;;;;;;6234389;23;20078;-84
2021/01/22 14:44:21;;;;;;;10.15;4.05;;;;;;;;;;6232838;23;20065;-85
2021/01/22 14:49:24;;;;;;;12.40;3.15;;;;;;;;;;6199845;23;20021;-85
2021/01/22 14:51:51;;;;;;;15.63;3.67;;;;;;;;;;6173900;23;20060;-84
2021/01/22 14:54:25;;;;;;;13.43;3.50;;;;;;;;;;6171633;23;20316;-85
2021/01/22 14:57:03;;;;;;;13.95;3.38;;;;;;;;;;6173092;23;20494;-85
2021/01/22 14:59:30;;;;;;;13.18;3.22;;;;;;;;;;6194430;23;20035;-86
2021/01/22 15:02:04;;;;;;;19.08;3.65;;;;;;;;;;6192292;23;20025;-85
2021/01/22 15:04:31;;;;;;;9.35;3.30;;;;;;;;;;6171400;23;20052;-86
2021/01/22 15:07:12;;;;;;;11.85;3.40;;;;;;;;;;6168019;23;20465;-85
2021/01/22 15:09:39;;;;;;;10.93;3.67;;;;;;;;;;6192145;23;20035;-85
2021/01/22 15:12:08;;;;;;;12.27;3.95;;;;;;;;;;6173686;23;20039;-86
2021/01/22 15:14:42;;;;;;;11.57;4.20;;;;;;;;;;6205243;23;20029;-85
2021/01/22 15:17:15;;;;;;;10.85;3.30;;;;;;;;;;6181315;23;20061;-86
2021/01/22 15:19:58;;;;;;;7.70;3.50;;;;;;;;;;6203234;23;20020;-86
2021/01/22 15:22:26;;;;;;;11.45;4.13;;;;;;;;;;6171198;23;20025;-85
2021/01/22 15:24:57;;;;;;;9.02;4.03;;;;;;;;;;6190374;23;20112;-85
2021/01/22 15:27:24;;;;;;;18.75;4.10;;;;;;;;;;6164667;23;20029;-86
2021/01/22 15:29:52;;;;;;;13.00;3.53;;;;;;;;;;6171279;23;20033;-86
2021/01/22 15:32:18;;;;;;;14.00;3.83;;;;;;;;;;6164748;23;20032;-86
2021/01/22 15:34:45;;;;;;;15.02;4.10;;;;;;;;;;6159849;23;20310;-86
2021/01/22 15:37:21;;;;;;;13.35;3.47;;;;;;;;;;6162219;23;20280;-86
2021/01/22 15:39:49;;;;;;;;;;;;;;;;;;6163079;23;20063;-86
2021/01/22 15:42:15;;;;;;;15.35;3.88;;;;;;;;;;6165929;23;19917;-86
2021/01/22 15:44:51;;;;;;;9.48;3.63;;;;;;;;;;6169708;23;20242;-85
2021/01/22 15:47:17;;;;;;;14.52;4.05;;;;;;;;;;6169138;23;20060;-85
2021/01/22 15:49:45;;;;;;;8.95;4.35;;;;;;;;;;6224180;23;20192;-85
2021/01/22 15:52:11;;;;;;;14.68;4.03;;;;;;;;;;6230884;23;20055;-85
2021/01/22 15:54:38;;;;;;;7.88;3.92;;;;;;;;;;6223589;23;20115;-86
2021/01/22 15:57:04;;;;;;;10.18;3.50;;;;;;;;;;6217594;23;20029;-85
2021/01/22 15:59:31;;;;;;;16.23;4.45;;;;;;;;;;6214927;23;20031;-85
2021/01/22 16:01:58;;;;;;;18.20;4.00;;;;;;;;;;6218576;23;20092;-86
2021/01/22 16:04:24;;;;;;;16.73;3.83;;;;;;;;;;6214747;23;20201;-85
2021/01/22 16:06:52;;;;;;;17.35;3.85;;;;;;;;;;6215500;23;20043;-85
2021/01/22 16:09:31;;;;;;;9.23;4.50;;;;;;;;;;6216139;23;20103;-85
2021/01/22 16:11:58;;;;;;;12.15;3.60;;;;;;;;;;6213911;23;20029;-85
2021/01/22 16:14:28;;;;;;;15.35;4.03;;;;;;;;;;6216045;23;20052;-85
2021/01/22 16:16:55;;;;;;;15.35;3.85;;;;;;;;;;6214343;23;20387;-85
2021/01/22 16:19:22;;;;;;;13.45;3.85;;;;;;;;;;6217066;23;20043;-87
2021/01/22 16:21:48;;;;;;;12.88;4.80;;;;;;;;;;6215027;23;20254;-86
2021/01/22 16:24:15;;;;;;;13.52;4.05;;;;;;;;;;6216628;23;20076;-86
2021/01/22 16:26:44;;;;;;;14.27;4.18;;;;;;;;;;6221650;23;20027;-86
2021/01/22 16:29:13;;;;;;;9.32;4.55;;;;;;;;;;6230932;23;20194;-86
2021/01/22 16:31:39;;;;;;;12.40;4.63;;;;;;;;;;6232109;23;20017;-86
2021/01/22 16:34:09;;;;;;;15.30;4.00;;;;;;;;;;6222583;23;20331;-86
2021/01/22 16:36:35;;;;;;;13.10;4.25;;;;;;;;;;6219045;23;20070;-86
2021/01/22 16:39:03;;;;;;;12.63;4.32;;;;;;;;;;6219569;23;20180;-86
2021/01/22 16:41:31;;;;;;;14.77;5.03;;;;;;;;;;6230357;23;20028;-86
2021/01/22 16:43:57;;;;;;;13.00;4.65;;;;;;;;;;6233576;23;20033;-86
2021/01/22 16:46:24;;;;;;;16.23;5.20;;;;;;;;;;6232130;23;20028;-86
2021/01/22 16:48:50;;;;;;;17.95;5.63;;;;;;;;;;6232949;23;20016;-87
2021/01/22 16:51:17;;;;;;;12.35;4.60;;;;;;;;;;6230465;23;20047;-86
2021/01/22 16:53:44;;;;;;;15.25;4.95;;;;;;;;;;6217413;23;20024;-86
2021/01/22 16:56:10;;;;;;;12.23;4.53;;;;;;;;;;6220414;23;20086;-86
2021/01/22 16:58:37;;;;;;;23.05;5.45;;;;;;;;;;6220744;23;20025;-86
2021/01/22 17:01:05;;;;;;;11.35;5.03;;;;;;;;;;6221921;23;20087;-86
2021/01/22 17:03:32;;;;;;;11.50;5.47;;;;;;;;;;6218595;23;20030;-86
2021/01/22 17:05:59;;;;;;;18.17;5.50;;;;;;;;;;6217879;23;20082;-86
2021/01/22 17:08:26;;;;;;;21.45;8.55;;;;;;;;;;6218984;23;20028;-86
2021/01/22 17:10:53;;;;;;;18.30;5.55;;;;;;;;;;6217310;23;20177;-86
2021/01/22 17:13:20;;;;;;;19.23;7.78;;;;;;;;;;6217835;23;20033;-86
2021/01/22 17:15:56;;;;;;;8.77;4.63;;;;;;;;;;6217337;23;20054;-87